sensor_id;sensor_type;location;lat;lon;timestamp;pressure;altitude;pressure_sealevel;temperature;humidity
74327;BME280;62745;51.060;13.786;2023-02-02T00:01:50;99991.78;;;3.21;86.07
74327;BME280;62745;51.060;13.786;2023-02-02T00:04:18;99988.06;;;3.32;86.52
74327;BME280;62745;51.060;13.786;2023-02-02T00:06:44;99999.13;;;3.36;86.36
74327;BME280;62745;51.060;13.786;2023-02-02T00:09:11;99993.28;;;3.24;84.32
74327;BME280;62745;51.060;13.786;2023-02-02T00:11:37;99997.41;;;3.26;84.13
74327;BME280;62745;51.060;13.786;2023-02-02T00:14:02;99993.13;;;3.25;85.40
74327;BME280;62745;51.060;13.786;2023-02-02T00:18:54;99996.50;;;3.18;85.57
74327;BME280;62745;51.060;13.786;2023-02-02T00:21:20;100000.94;;;3.17;85.19
74327;BME280;62745;51.060;13.786;2023-02-02T00:23:45;99998.03;;;3.20;84.17
74327;BME280;62745;51.060;13.786;2023-02-02T00:26:10;99992.44;;;3.23;84.63
74327;BME280;62745;51.060;13.786;2023-02-02T00:28:36;99989.50;;;3.26;84.27
74327;BME280;62745;51.060;13.786;2023-02-02T00:31:01;99987.84;;;3.25;83.70
74327;BME280;62745;51.060;13.786;2023-02-02T00:33:26;99982.03;;;3.22;84.44
74327;BME280;62745;51.060;13.786;2023-02-02T00:35:52;99979.25;;;3.23;83.74
74327;BME280;62745;51.060;13.786;2023-02-02T00:38:17;99976.97;;;3.28;84.03
74327;BME280;62745;51.060;13.786;2023-02-02T00:40:43;99977.94;;;3.27;84.04
74327;BME280;62745;51.060;13.786;2023-02-02T00:43:08;99979.91;;;3.25;82.97
74327;BME280;62745;51.060;13.786;2023-02-02T00:45:35;99978.47;;;3.31;83.42
74327;BME280;62745;51.060;13.786;2023-02-02T00:48:00;99990.09;;;3.38;81.44
74327;BME280;62745;51.060;13.786;2023-02-02T00:50:25;99985.34;;;3.42;81.64
74327;BME280;62745;51.060;13.786;2023-02-02T00:52:51;99979.38;;;3.40;82.23
74327;BME280;62745;51.060;13.786;2023-02-02T00:55:17;99978.72;;;3.38;81.01
74327;BME280;62745;51.060;13.786;2023-02-02T00:57:43;99984.44;;;3.33;82.72
74327;BME280;62745;51.060;13.786;2023-02-02T01:00:12;99979.97;;;3.33;82.11
74327;BME280;62745;51.060;13.786;2023-02-02T01:02:38;99983.22;;;3.27;82.72
74327;BME280;62745;51.060;13.786;2023-02-02T01:05:03;99982.47;;;3.35;81.61
74327;BME280;62745;51.060;13.786;2023-02-02T01:07:29;99979.53;;;3.38;81.71
74327;BME280;62745;51.060;13.786;2023-02-02T01:09:54;99973.44;;;3.38;81.18
74327;BME280;62745;51.060;13.786;2023-02-02T01:12:19;99974.25;;;3.38;81.65
74327;BME280;62745;51.060;13.786;2023-02-02T01:14:45;99977.88;;;3.37;81.08
74327;BME280;62745;51.060;13.786;2023-02-02T01:17:10;99977.88;;;3.37;81.29
74327;BME280;62745;51.060;13.786;2023-02-02T01:19:35;99974.34;;;3.28;81.96
74327;BME280;62745;51.060;13.786;2023-02-02T01:22:01;99965.06;;;3.24;81.22
74327;BME280;62745;51.060;13.786;2023-02-02T01:24:26;99992.19;;;3.35;81.40
74327;BME280;62745;51.060;13.786;2023-02-02T01:26:51;99990.25;;;3.37;80.06
74327;BME280;62745;51.060;13.786;2023-02-02T01:29:16;99994.56;;;3.38;80.68
74327;BME280;62745;51.060;13.786;2023-02-02T01:31:42;99984.41;;;3.51;79.64
74327;BME280;62745;51.060;13.786;2023-02-02T01:34:07;99981.75;;;3.51;79.49
74327;BME280;62745;51.060;13.786;2023-02-02T01:36:33;99978.59;;;3.47;79.74
74327;BME280;62745;51.060;13.786;2023-02-02T01:38:58;99967.88;;;3.49;79.51
74327;BME280;62745;51.060;13.786;2023-02-02T01:41:24;99973.84;;;3.51;79.91
74327;BME280;62745;51.060;13.786;2023-02-02T01:43:51;99964.69;;;3.63;78.61
74327;BME280;62745;51.060;13.786;2023-02-02T01:52:07;99966.09;;;3.75;77.70
74327;BME280;62745;51.060;13.786;2023-02-02T01:54:38;99969.34;;;3.69;77.83
74327;BME280;62745;51.060;13.786;2023-02-02T01:57:11;99966.03;;;3.67;78.02
74327;BME280;62745;51.060;13.786;2023-02-02T01:59:40;99954.50;;;3.68;78.74
74327;BME280;62745;51.060;13.786;2023-02-02T02:02:06;99942.41;;;3.66;78.29
74327;BME280;62745;51.060;13.786;2023-02-02T02:04:33;99948.69;;;3.65;78.65
74327;BME280;62745;51.060;13.786;2023-02-02T02:07:00;99949.69;;;3.63;78.99
74327;BME280;62745;51.060;13.786;2023-02-02T02:09:26;99981.88;;;3.67;78.74
74327;BME280;62745;51.060;13.786;2023-02-02T02:11:52;99957.94;;;3.69;78.94
74327;BME280;62745;51.060;13.786;2023-02-02T02:14:18;99958.50;;;3.72;78.19
74327;BME280;62745;51.060;13.786;2023-02-02T02:17:16;99971.56;;;3.74;77.84
74327;BME280;62745;51.060;13.786;2023-02-02T02:20:06;99968.75;;;3.75;77.89
74327;BME280;62745;51.060;13.786;2023-02-02T02:23:11;99974.19;;;3.74;77.66
74327;BME280;62745;51.060;13.786;2023-02-02T02:26:22;99965.59;;;3.72;78.20
74327;BME280;62745;51.060;13.786;2023-02-02T02:32:09;99951.72;;;3.70;77.50
74327;BME280;62745;51.060;13.786;2023-02-02T02:37:32;99967.09;;;3.74;76.85
74327;BME280;62745;51.060;13.786;2023-02-02T02:40:17;99962.78;;;3.73;76.68
74327;BME280;62745;51.060;13.786;2023-02-02T02:42:47;99965.28;;;3.75;77.59
74327;BME280;62745;51.060;13.786;2023-02-02T02:45:15;99956.69;;;3.73;77.49
74327;BME280;62745;51.060;13.786;2023-02-02T02:47:42;99970.41;;;3.76;76.32
74327;BME280;62745;51.060;13.786;2023-02-02T02:50:09;99963.00;;;3.80;76.39
74327;BME280;62745;51.060;13.786;2023-02-02T02:52:35;99970.59;;;3.83;76.61
74327;BME280;62745;51.060;13.786;2023-02-02T02:55:02;99965.94;;;3.77;76.09
74327;BME280;62745;51.060;13.786;2023-02-02T03:00:55;99970.16;;;3.87;76.02
74327;BME280;62745;51.060;13.786;2023-02-02T03:03:57;99956.94;;;3.87;76.06
74327;BME280;62745;51.060;13.786;2023-02-02T03:06:31;99947.38;;;3.86;75.85
74327;BME280;62745;51.060;13.786;2023-02-02T03:09:16;99977.44;;;3.93;74.99
74327;BME280;62745;51.060;13.786;2023-02-02T03:11:43;99964.41;;;3.92;75.83
74327;BME280;62745;51.060;13.786;2023-02-02T03:14:09;99991.66;;;3.92;75.19
74327;BME280;62745;51.060;13.786;2023-02-02T03:16:35;99980.09;;;3.93;75.29
74327;BME280;62745;51.060;13.786;2023-02-02T03:19:01;99969.38;;;3.95;74.57
74327;BME280;62745;51.060;13.786;2023-02-02T03:21:28;99975.31;;;3.97;74.34
74327;BME280;62745;51.060;13.786;2023-02-02T03:23:54;99973.72;;;4.04;74.60
74327;BME280;62745;51.060;13.786;2023-02-02T03:26:19;99965.91;;;4.03;74.40
74327;BME280;62745;51.060;13.786;2023-02-02T03:28:45;99973.34;;;3.99;74.60
74327;BME280;62745;51.060;13.786;2023-02-02T03:31:11;99977.19;;;4.05;74.40
74327;BME280;62745;51.060;13.786;2023-02-02T03:33:36;99975.22;;;4.07;73.60
74327;BME280;62745;51.060;13.786;2023-02-02T03:36:02;99978.31;;;4.02;74.30
74327;BME280;62745;51.060;13.786;2023-02-02T03:38:27;99987.06;;;4.03;74.01
74327;BME280;62745;51.060;13.786;2023-02-02T03:40:53;99981.78;;;4.03;74.27
74327;BME280;62745;51.060;13.786;2023-02-02T03:43:22;99983.75;;;4.01;74.53
74327;BME280;62745;51.060;13.786;2023-02-02T03:45:47;100001.13;;;4.03;74.41
74327;BME280;62745;51.060;13.786;2023-02-02T03:48:18;99994.38;;;4.09;73.86
74327;BME280;62745;51.060;13.786;2023-02-02T03:50:44;99987.75;;;4.05;73.94
74327;BME280;62745;51.060;13.786;2023-02-02T03:53:09;99987.06;;;4.03;73.87
74327;BME280;62745;51.060;13.786;2023-02-02T03:55:34;99983.59;;;4.02;74.61
74327;BME280;62745;51.060;13.786;2023-02-02T03:57:59;99978.31;;;4.02;74.64
74327;BME280;62745;51.060;13.786;2023-02-02T04:00:25;99985.72;;;3.99;74.01
74327;BME280;62745;51.060;13.786;2023-02-02T04:02:50;99977.47;;;4.02;74.33
74327;BME280;62745;51.060;13.786;2023-02-02T04:05:15;99977.13;;;3.97;74.93
74327;BME280;62745;51.060;13.786;2023-02-02T04:07:40;100015.03;;;4.05;73.50
74327;BME280;62745;51.060;13.786;2023-02-02T04:10:06;99994.72;;;4.06;73.88
74327;BME280;62745;51.060;13.786;2023-02-02T04:12:31;99995.97;;;4.02;74.13
74327;BME280;62745;51.060;13.786;2023-02-02T04:14:56;100015.03;;;4.05;74.16
74327;BME280;62745;51.060;13.786;2023-02-02T04:17:22;100020.16;;;4.07;73.85
74327;BME280;62745;51.060;13.786;2023-02-02T04:19:47;100004.22;;;3.99;73.87
74327;BME280;62745;51.060;13.786;2023-02-02T04:22:12;100007.25;;;4.04;73.46
74327;BME280;62745;51.060;13.786;2023-02-02T04:24:37;100011.16;;;4.00;74.50
74327;BME280;62745;51.060;13.786;2023-02-02T04:27:03;100013.38;;;4.04;73.77
74327;BME280;62745;51.060;13.786;2023-02-02T04:29:28;100017.00;;;4.03;73.42
74327;BME280;62745;51.060;13.786;2023-02-02T04:31:53;100016.69;;;4.06;73.00
74327;BME280;62745;51.060;13.786;2023-02-02T04:34:19;100037.66;;;4.08;73.33
74327;BME280;62745;51.060;13.786;2023-02-02T04:36:44;100025.44;;;4.07;72.77
74327;BME280;62745;51.060;13.786;2023-02-02T04:39:10;100025.88;;;4.02;73.80
74327;BME280;62745;51.060;13.786;2023-02-02T04:41:35;100022.28;;;4.03;73.70
74327;BME280;62745;51.060;13.786;2023-02-02T04:44:01;100025.75;;;4.04;73.14
74327;BME280;62745;51.060;13.786;2023-02-02T04:46:26;100032.97;;;4.02;73.44
74327;BME280;62745;51.060;13.786;2023-02-02T04:48:52;100030.22;;;4.03;73.72
74327;BME280;62745;51.060;13.786;2023-02-02T04:51:18;100041.75;;;4.02;74.17
74327;BME280;62745;51.060;13.786;2023-02-02T04:53:43;100045.78;;;3.88;74.92
74327;BME280;62745;51.060;13.786;2023-02-02T04:56:12;100040.41;;;3.98;74.36
74327;BME280;62745;51.060;13.786;2023-02-02T04:58:38;100040.72;;;3.95;74.34
74327;BME280;62745;51.060;13.786;2023-02-02T05:01:32;100057.59;;;4.02;73.87
74327;BME280;62745;51.060;13.786;2023-02-02T05:03:58;100041.53;;;3.96;74.15
74327;BME280;62745;51.060;13.786;2023-02-02T05:06:23;100052.78;;;3.98;74.21
74327;BME280;62745;51.060;13.786;2023-02-02T05:08:48;100063.34;;;3.98;74.06
74327;BME280;62745;51.060;13.786;2023-02-02T05:11:21;100050.13;;;3.98;74.74
74327;BME280;62745;51.060;13.786;2023-02-02T05:13:50;100053.13;;;4.03;73.83
74327;BME280;62745;51.060;13.786;2023-02-02T05:16:15;100066.50;;;4.01;73.64
74327;BME280;62745;51.060;13.786;2023-02-02T05:18:41;100060.94;;;4.04;74.11
74327;BME280;62745;51.060;13.786;2023-02-02T05:21:07;100078.63;;;4.04;73.65
74327;BME280;62745;51.060;13.786;2023-02-02T05:23:33;100082.22;;;4.03;75.11
74327;BME280;62745;51.060;13.786;2023-02-02T05:25:58;100078.06;;;4.00;74.63
74327;BME280;62745;51.060;13.786;2023-02-02T05:28:23;100078.38;;;3.97;74.71
74327;BME280;62745;51.060;13.786;2023-02-02T05:30:49;100110.91;;;3.98;74.62
74327;BME280;62745;51.060;13.786;2023-02-02T05:33:15;100080.03;;;3.98;74.74
74327;BME280;62745;51.060;13.786;2023-02-02T05:35:44;100096.88;;;3.97;74.35
74327;BME280;62745;51.060;13.786;2023-02-02T05:38:09;100094.41;;;3.96;75.01
74327;BME280;62745;51.060;13.786;2023-02-02T05:40:35;100096.41;;;4.02;74.68
74327;BME280;62745;51.060;13.786;2023-02-02T05:43:00;100093.50;;;4.05;74.07
74327;BME280;62745;51.060;13.786;2023-02-02T05:45:25;100097.53;;;5.19;83.60
74327;BME280;62745;51.060;13.786;2023-02-02T05:47:53;100103.84;;;5.34;77.04
74327;BME280;62745;51.060;13.786;2023-02-02T05:50:19;100107.06;;;5.87;77.41
74327;BME280;62745;51.060;13.786;2023-02-02T05:52:46;100110.69;;;5.53;nan
74327;BME280;62745;51.060;13.786;2023-02-02T05:55:12;100115.19;;;5.69;76.27
74327;BME280;62745;51.060;13.786;2023-02-02T05:57:37;100122.28;;;5.52;74.95
74327;BME280;62745;51.060;13.786;2023-02-02T06:00:03;100131.06;;;5.53;76.05
74327;BME280;62745;51.060;13.786;2023-02-02T06:02:29;100130.72;;;5.48;74.27
74327;BME280;62745;51.060;13.786;2023-02-02T06:04:54;100122.72;;;5.31;72.03
74327;BME280;62745;51.060;13.786;2023-02-02T06:07:19;100112.28;;;5.22;73.23
74327;BME280;62745;51.060;13.786;2023-02-02T06:09:44;100128.97;;;5.72;78.63
74327;BME280;62745;51.060;13.786;2023-02-02T06:12:10;100137.84;;;5.47;73.53
74327;BME280;62745;51.060;13.786;2023-02-02T06:14:35;100132.94;;;4.76;72.29
74327;BME280;62745;51.060;13.786;2023-02-02T06:17:00;100142.97;;;4.38;74.59
74327;BME280;62745;51.060;13.786;2023-02-02T06:19:26;100151.63;;;4.22;75.55
74327;BME280;62745;51.060;13.786;2023-02-02T06:21:51;100156.47;;;4.09;77.25
74327;BME280;62745;51.060;13.786;2023-02-02T06:24:16;100157.19;;;4.02;78.69
74327;BME280;62745;51.060;13.786;2023-02-02T06:26:42;100149.53;;;3.90;78.96
74327;BME280;62745;51.060;13.786;2023-02-02T06:29:11;100160.69;;;3.84;79.04
74327;BME280;62745;51.060;13.786;2023-02-02T06:31:36;100166.66;;;3.86;78.53
74327;BME280;62745;51.060;13.786;2023-02-02T06:34:01;100155.41;;;3.84;79.53
74327;BME280;62745;51.060;13.786;2023-02-02T06:36:27;100156.47;;;3.91;78.16
74327;BME280;62745;51.060;13.786;2023-02-02T06:38:53;100172.03;;;3.95;77.71
74327;BME280;62745;51.060;13.786;2023-02-02T06:41:20;100178.97;;;3.96;77.96
74327;BME280;62745;51.060;13.786;2023-02-02T06:43:46;100173.69;;;3.96;78.01
74327;BME280;62745;51.060;13.786;2023-02-02T06:46:12;100175.94;;;3.90;77.91
74327;BME280;62745;51.060;13.786;2023-02-02T06:48:37;100169.00;;;3.89;78.80
74327;BME280;62745;51.060;13.786;2023-02-02T06:51:03;100177.09;;;3.88;78.15
74327;BME280;62745;51.060;13.786;2023-02-02T06:53:30;100187.09;;;3.84;78.75
74327;BME280;62745;51.060;13.786;2023-02-02T06:55:57;100187.81;;;3.86;78.94
74327;BME280;62745;51.060;13.786;2023-02-02T06:58:22;100180.56;;;3.88;77.54
74327;BME280;62745;51.060;13.786;2023-02-02T07:00:47;100193.78;;;3.88;77.83
74327;BME280;62745;51.060;13.786;2023-02-02T07:03:14;100200.41;;;3.92;77.33
74327;BME280;62745;51.060;13.786;2023-02-02T07:05:39;100192.31;;;3.94;77.01
74327;BME280;62745;51.060;13.786;2023-02-02T07:08:04;100202.91;;;3.94;78.18
74327;BME280;62745;51.060;13.786;2023-02-02T07:10:30;100204.34;;;3.88;78.75
74327;BME280;62745;51.060;13.786;2023-02-02T07:12:55;100200.16;;;3.86;79.41
74327;BME280;62745;51.060;13.786;2023-02-02T07:15:20;100204.63;;;3.85;78.87
74327;BME280;62745;51.060;13.786;2023-02-02T07:17:46;100202.53;;;3.89;79.30
74327;BME280;62745;51.060;13.786;2023-02-02T07:20:11;100197.16;;;3.81;80.48
74327;BME280;62745;51.060;13.786;2023-02-02T07:22:38;100204.78;;;3.84;79.75
74327;BME280;62745;51.060;13.786;2023-02-02T07:25:03;100212.28;;;3.88;79.15
74327;BME280;62745;51.060;13.786;2023-02-02T07:27:28;100195.59;;;3.88;78.76
74327;BME280;62745;51.060;13.786;2023-02-02T07:29:54;100217.09;;;3.93;78.46
74327;BME280;62745;51.060;13.786;2023-02-02T07:32:19;100214.75;;;3.90;79.65
74327;BME280;62745;51.060;13.786;2023-02-02T07:34:44;100226.31;;;3.89;79.83
74327;BME280;62745;51.060;13.786;2023-02-02T07:37:09;100226.88;;;3.83;81.85
74327;BME280;62745;51.060;13.786;2023-02-02T07:39:35;100225.16;;;3.74;82.67
74327;BME280;62745;51.060;13.786;2023-02-02T07:42:00;100195.97;;;3.48;82.19
74327;BME280;62745;51.060;13.786;2023-02-02T07:44:25;100235.78;;;3.64;84.87
74327;BME280;62745;51.060;13.786;2023-02-02T07:46:51;100234.41;;;3.60;84.85
74327;BME280;62745;51.060;13.786;2023-02-02T07:49:17;100238.88;;;3.59;85.21
74327;BME280;62745;51.060;13.786;2023-02-02T07:51:42;100214.59;;;3.46;83.41
74327;BME280;62745;51.060;13.786;2023-02-02T07:54:09;100245.47;;;3.73;82.79
74327;BME280;62745;51.060;13.786;2023-02-02T07:56:36;100250.06;;;3.71;82.34
74327;BME280;62745;51.060;13.786;2023-02-02T07:59:02;100248.03;;;3.83;81.00
74327;BME280;62745;51.060;13.786;2023-02-02T08:01:28;100244.25;;;3.85;80.53
74327;BME280;62745;51.060;13.786;2023-02-02T08:03:55;100246.53;;;3.98;79.90
74327;BME280;62745;51.060;13.786;2023-02-02T08:06:28;100247.91;;;4.02;80.33
74327;BME280;62745;51.060;13.786;2023-02-02T08:08:55;100254.72;;;4.05;79.27
74327;BME280;62745;51.060;13.786;2023-02-02T08:11:22;100258.03;;;4.07;79.13
74327;BME280;62745;51.060;13.786;2023-02-02T08:13:50;100265.81;;;4.08;78.75
74327;BME280;62745;51.060;13.786;2023-02-02T08:16:15;100269.66;;;4.14;79.05
74327;BME280;62745;51.060;13.786;2023-02-02T08:18:41;100269.66;;;4.14;79.70
74327;BME280;62745;51.060;13.786;2023-02-02T08:21:07;100272.84;;;4.17;78.90
74327;BME280;62745;51.060;13.786;2023-02-02T08:23:33;100278.13;;;4.17;78.85
74327;BME280;62745;51.060;13.786;2023-02-02T08:28:41;100285.91;;;4.19;79.06
74327;BME280;62745;51.060;13.786;2023-02-02T08:31:09;100293.97;;;4.17;78.68
74327;BME280;62745;51.060;13.786;2023-02-02T08:33:35;100281.59;;;4.18;78.85
74327;BME280;62745;51.060;13.786;2023-02-02T08:36:01;100290.66;;;4.15;78.73
74327;BME280;62745;51.060;13.786;2023-02-02T08:38:26;100294.81;;;4.18;77.92
74327;BME280;62745;51.060;13.786;2023-02-02T08:40:52;100288.69;;;4.17;78.24
74327;BME280;62745;51.060;13.786;2023-02-02T08:43:17;100297.31;;;4.19;78.55
74327;BME280;62745;51.060;13.786;2023-02-02T08:45:42;100302.06;;;4.16;79.42
74327;BME280;62745;51.060;13.786;2023-02-02T08:48:08;100299.41;;;4.16;78.82
74327;BME280;62745;51.060;13.786;2023-02-02T08:50:34;100287.44;;;4.21;79.03
74327;BME280;62745;51.060;13.786;2023-02-02T08:52:59;100305.13;;;4.21;79.32
74327;BME280;62745;51.060;13.786;2023-02-02T08:55:24;100309.41;;;4.22;78.31
74327;BME280;62745;51.060;13.786;2023-02-02T08:57:49;100300.66;;;4.21;80.13
74327;BME280;62745;51.060;13.786;2023-02-02T09:00:15;100314.38;;;4.07;81.53
74327;BME280;62745;51.060;13.786;2023-02-02T09:02:40;100313.28;;;4.00;82.95
74327;BME280;62745;51.060;13.786;2023-02-02T09:05:06;100335.25;;;4.01;83.33
74327;BME280;62745;51.060;13.786;2023-02-02T09:07:31;100328.03;;;4.03;81.49
74327;BME280;62745;51.060;13.786;2023-02-02T09:09:56;100335.84;;;4.04;81.18
74327;BME280;62745;51.060;13.786;2023-02-02T09:12:22;100332.88;;;4.07;81.64
74327;BME280;62745;51.060;13.786;2023-02-02T09:14:47;100328.66;;;4.14;81.68
74327;BME280;62745;51.060;13.786;2023-02-02T09:17:13;100333.41;;;4.11;80.97
74327;BME280;62745;51.060;13.786;2023-02-02T09:19:38;100333.25;;;4.12;81.98
74327;BME280;62745;51.060;13.786;2023-02-02T09:22:03;100339.84;;;4.08;82.52
74327;BME280;62745;51.060;13.786;2023-02-02T09:24:28;100337.19;;;4.08;82.96
74327;BME280;62745;51.060;13.786;2023-02-02T09:26:54;100337.34;;;4.07;83.45
74327;BME280;62745;51.060;13.786;2023-02-02T09:29:20;100350.56;;;4.07;82.91
74327;BME280;62745;51.060;13.786;2023-02-02T09:31:45;100350.84;;;4.04;83.02
74327;BME280;62745;51.060;13.786;2023-02-02T09:34:12;100349.47;;;4.00;83.92
74327;BME280;62745;51.060;13.786;2023-02-02T09:36:39;100357.53;;;3.98;84.16
74327;BME280;62745;51.060;13.786;2023-02-02T09:39:05;100362.84;;;3.98;84.03
74327;BME280;62745;51.060;13.786;2023-02-02T09:46:48;100361.09;;;3.89;85.84
74327;BME280;62745;51.060;13.786;2023-02-02T09:49:32;100368.03;;;3.90;86.32
74327;BME280;62745;51.060;13.786;2023-02-02T09:52:07;100374.69;;;3.94;84.75
74327;BME280;62745;51.060;13.786;2023-02-02T09:54:40;100390.97;;;3.89;85.79
74327;BME280;62745;51.060;13.786;2023-02-02T09:57:25;100402.91;;;3.93;87.66
74327;BME280;62745;51.060;13.786;2023-02-02T09:59:53;100400.56;;;3.90;87.01
74327;BME280;62745;51.060;13.786;2023-02-02T10:02:26;100394.84;;;3.95;86.45
74327;BME280;62745;51.060;13.786;2023-02-02T10:04:57;100370.97;;;3.87;85.99
74327;BME280;62745;51.060;13.786;2023-02-02T10:07:40;100394.97;;;4.03;86.32
74327;BME280;62745;51.060;13.786;2023-02-02T10:10:19;100388.53;;;4.06;85.76
74327;BME280;62745;51.060;13.786;2023-02-02T10:12:55;100391.41;;;4.12;85.84
74327;BME280;62745;51.060;13.786;2023-02-02T10:15:41;100393.91;;;4.14;84.90
74327;BME280;62745;51.060;13.786;2023-02-02T10:18:18;100399.88;;;4.16;84.70
74327;BME280;62745;51.060;13.786;2023-02-02T10:20:50;100394.19;;;4.20;84.04
74327;BME280;62745;51.060;13.786;2023-02-02T10:23:42;100391.09;;;4.25;83.42
74327;BME280;62745;51.060;13.786;2023-02-02T10:26:35;100400.53;;;4.28;83.48
74327;BME280;62745;51.060;13.786;2023-02-02T10:37:48;100404.00;;;4.01;88.47
74327;BME280;62745;51.060;13.786;2023-02-02T10:43:33;100405.72;;;3.92;88.55
74327;BME280;62745;51.060;13.786;2023-02-02T10:48:43;100409.34;;;3.91;90.68
74327;BME280;62745;51.060;13.786;2023-02-02T10:51:28;100413.78;;;3.90;89.96
74327;BME280;62745;51.060;13.786;2023-02-02T10:53:56;100414.31;;;3.94;88.02
74327;BME280;62745;51.060;13.786;2023-02-02T10:56:30;100406.69;;;3.91;89.16
74327;BME280;62745;51.060;13.786;2023-02-02T10:59:05;100414.19;;;3.96;90.19
74327;BME280;62745;51.060;13.786;2023-02-02T11:01:31;100404.59;;;3.95;89.38
74327;BME280;62745;51.060;13.786;2023-02-02T11:03:57;100415.41;;;4.01;90.48
74327;BME280;62745;51.060;13.786;2023-02-02T11:06:40;100423.28;;;4.11;89.54
74327;BME280;62745;51.060;13.786;2023-02-02T11:09:27;100423.00;;;4.14;89.17
74327;BME280;62745;51.060;13.786;2023-02-02T11:12:05;100412.41;;;4.14;89.91
74327;BME280;62745;51.060;13.786;2023-02-02T11:14:42;100420.19;;;4.15;89.50
74327;BME280;62745;51.060;13.786;2023-02-02T11:17:17;100413.91;;;4.26;90.58
74327;BME280;62745;51.060;13.786;2023-02-02T11:19:43;100418.00;;;4.38;91.21
74327;BME280;62745;51.060;13.786;2023-02-02T11:22:23;100420.41;;;4.32;89.05
74327;BME280;62745;51.060;13.786;2023-02-02T11:24:51;100416.09;;;4.31;88.84
74327;BME280;62745;51.060;13.786;2023-02-02T11:27:21;100431.91;;;4.40;88.82
74327;BME280;62745;51.060;13.786;2023-02-02T11:29:50;100405.13;;;4.26;88.87
74327;BME280;62745;51.060;13.786;2023-02-02T11:37:37;100430.34;;;4.47;87.10
74327;BME280;62745;51.060;13.786;2023-02-02T11:42:50;100426.84;;;4.47;85.59
74327;BME280;62745;51.060;13.786;2023-02-02T11:45:17;100435.13;;;4.62;86.64
74327;BME280;62745;51.060;13.786;2023-02-02T11:47:43;100442.38;;;4.60;85.47
74327;BME280;62745;51.060;13.786;2023-02-02T11:50:19;100438.56;;;4.72;86.07
74327;BME280;62745;51.060;13.786;2023-02-02T11:52:46;100447.03;;;4.93;85.34
74327;BME280;62745;51.060;13.786;2023-02-02T11:55:17;100433.47;;;4.78;84.60
74327;BME280;62745;51.060;13.786;2023-02-02T11:58:18;100449.19;;;4.80;86.30
74327;BME280;62745;51.060;13.786;2023-02-02T12:01:00;100439.13;;;4.83;85.85
74327;BME280;62745;51.060;13.786;2023-02-02T12:03:35;100452.31;;;4.75;86.11
74327;BME280;62745;51.060;13.786;2023-02-02T12:06:18;100461.22;;;4.74;87.89
74327;BME280;62745;51.060;13.786;2023-02-02T12:08:44;100446.50;;;4.72;87.75
74327;BME280;62745;51.060;13.786;2023-02-02T12:11:19;100445.66;;;4.71;86.57
74327;BME280;62745;51.060;13.786;2023-02-02T12:14:00;100443.13;;;4.70;87.59
74327;BME280;62745;51.060;13.786;2023-02-02T12:19:19;100441.09;;;4.81;84.93
74327;BME280;62745;51.060;13.786;2023-02-02T12:21:57;100464.88;;;4.91;85.01
74327;BME280;62745;51.060;13.786;2023-02-02T12:27:03;100447.19;;;4.92;84.18
74327;BME280;62745;51.060;13.786;2023-02-02T12:30:02;100445.94;;;4.86;84.75
74327;BME280;62745;51.060;13.786;2023-02-02T12:32:50;100452.53;;;4.82;85.60
74327;BME280;62745;51.060;13.786;2023-02-02T12:35:38;100446.41;;;4.81;86.38
74327;BME280;62745;51.060;13.786;2023-02-02T12:43:39;100460.00;;;4.87;86.25
74327;BME280;62745;51.060;13.786;2023-02-02T12:49:12;100460.31;;;5.01;84.86
74327;BME280;62745;51.060;13.786;2023-02-02T12:54:50;100453.72;;;5.41;83.05
74327;BME280;62745;51.060;13.786;2023-02-02T12:57:34;100464.78;;;5.80;81.26
74327;BME280;62745;51.060;13.786;2023-02-02T13:03:16;100462.13;;;5.36;81.74
74327;BME280;62745;51.060;13.786;2023-02-02T13:06:05;100478.94;;;5.27;81.73
74327;BME280;62745;51.060;13.786;2023-02-02T13:11:55;100478.56;;;5.40;81.49
74327;BME280;62745;51.060;13.786;2023-02-02T13:14:29;100484.69;;;5.40;81.60
74327;BME280;62745;51.060;13.786;2023-02-02T13:17:01;100467.38;;;5.10;81.97
74327;BME280;62745;51.060;13.786;2023-02-02T13:19:40;100475.47;;;5.09;82.70
74327;BME280;62745;51.060;13.786;2023-02-02T13:22:12;100486.91;;;5.09;82.63
74327;BME280;62745;51.060;13.786;2023-02-02T13:24:42;100489.09;;;5.76;80.21
74327;BME280;62745;51.060;13.786;2023-02-02T13:27:15;100497.38;;;5.72;79.56
74327;BME280;62745;51.060;13.786;2023-02-02T13:29:45;100488.31;;;5.57;79.77
74327;BME280;62745;51.060;13.786;2023-02-02T13:32:26;100495.44;;;5.39;80.50
74327;BME280;62745;51.060;13.786;2023-02-02T13:37:41;100504.44;;;5.28;79.96
74327;BME280;62745;51.060;13.786;2023-02-02T13:40:27;100498.38;;;5.36;80.29
74327;BME280;62745;51.060;13.786;2023-02-02T13:48:38;100511.47;;;5.20;78.44
74327;BME280;62745;51.060;13.786;2023-02-02T13:51:11;100531.53;;;5.22;78.24
74327;BME280;62745;51.060;13.786;2023-02-02T13:56:45;100541.72;;;5.17;78.62
74327;BME280;62745;51.060;13.786;2023-02-02T13:59:41;100540.06;;;4.98;79.77
74327;BME280;62745;51.060;13.786;2023-02-02T14:02:32;100552.81;;;4.85;80.39
74327;BME280;62745;51.060;13.786;2023-02-02T14:05:01;100549.25;;;4.76;80.26
74327;BME280;62745;51.060;13.786;2023-02-02T14:07:38;100565.41;;;4.73;81.44
74327;BME280;62745;51.060;13.786;2023-02-02T14:10:20;100568.22;;;4.72;82.29
74327;BME280;62745;51.060;13.786;2023-02-02T14:12:47;100567.38;;;4.71;82.18
74327;BME280;62745;51.060;13.786;2023-02-02T14:15:12;100580.03;;;4.77;82.22
74327;BME280;62745;51.060;13.786;2023-02-02T14:20:04;100588.03;;;4.86;81.67
74327;BME280;62745;51.060;13.786;2023-02-02T14:22:47;100578.78;;;4.99;80.93
74327;BME280;62745;51.060;13.786;2023-02-02T14:25:45;100591.88;;;5.01;80.82
74327;BME280;62745;51.060;13.786;2023-02-02T14:28:37;100589.63;;;5.06;80.61
74327;BME280;62745;51.060;13.786;2023-02-02T14:33:50;100594.16;;;5.13;79.79